Time,TemperatureF,DewpointF,PressureIn,WindDirection,WindDirectionDegrees,WindSpeedMPH,WindSpeedGustMPH,Humidity,HourlyPrecipIn,Conditions,Clouds,dailyrainin,SolarRadiationWatts/m^2,SoftwareType,DateUTC
2013-08-21 00:00:00,71.0,63.0,-100.00,South,169,1.0,-999.0,75,0.00,,,0.00,0.000000,,2013-08-21 05:00:00,
2013-08-21 00:23:00,71.0,63.0,-100.00,South,169,1.0,-999.0,75,0.00,,,0.00,0.000000,,2013-08-21 05:23:00,
2013-08-21 00:34:00,71.0,63.0,-100.00,South,169,1.0,-999.0,75,0.00,,,0.00,0.000000,,2013-08-21 05:34:00,
2013-08-21 00:43:00,71.0,63.0,-100.00,South,169,1.0,-999.0,75,0.00,,,0.00,0.000000,,2013-08-21 05:43:00,
2013-08-21 00:52:00,71.0,63.0,-100.00,South,169,1.0,-999.0,75,0.00,,,0.00,0.000000,,2013-08-21 05:52:00,
2013-08-21 01:00:00,70.0,62.0,-100.00,South,169,0.0,-999.0,76,0.00,,,0.00,0.000000,,2013-08-21 06:00:00,
2013-08-21 01:42:00,70.0,62.0,-100.00,South,169,0.0,-999.0,76,0.00,,,0.00,0.000000,,2013-08-21 06:42:00,
2013-08-21 01:52:00,70.0,62.0,-100.00,South,169,0.0,-999.0,76,0.00,,,0.00,0.000000,,2013-08-21 06:52:00,
2013-08-21 02:00:00,69.0,61.0,-100.00,South,169,1.0,-999.0,76,0.00,,,0.00,0.000000,,2013-08-21 07:00:00,
2013-08-21 02:42:00,69.0,61.0,-100.00,South,169,1.0,-999.0,76,0.00,,,0.00,0.000000,,2013-08-21 07:42:00,
2013-08-21 02:53:00,69.0,61.0,-100.00,South,169,1.0,-999.0,76,0.00,,,0.00,0.000000,,2013-08-21 07:53:00,
2013-08-21 03:00:00,68.0,61.0,-100.00,South,170,1.0,-999.0,80,0.00,,,0.00,0.000000,,2013-08-21 08:00:00,
2013-08-21 03:22:00,68.0,61.0,-100.00,South,170,1.0,-999.0,80,0.00,,,0.00,0.000000,,2013-08-21 08:22:00,
2013-08-21 03:32:00,68.0,61.0,-100.00,South,170,1.0,-999.0,80,0.00,,,0.00,0.000000,,2013-08-21 08:32:00,
2013-08-21 03:43:00,68.0,61.0,-100.00,South,170,1.0,-999.0,80,0.00,,,0.00,0.000000,,2013-08-21 08:43:00,
2013-08-21 03:53:00,68.0,61.0,-100.00,South,170,1.0,-999.0,80,0.00,,,0.00,0.000000,,2013-08-21 08:53:00,
2013-08-21 04:00:00,66.0,61.0,-100.00,SSE,165,1.0,-999.0,85,0.00,,,0.00,0.000000,,2013-08-21 09:00:00,
2013-08-21 04:43:00,66.0,61.0,-100.00,SSE,165,1.0,-999.0,85,0.00,,,0.00,0.000000,,2013-08-21 09:43:00,
2013-08-21 04:54:00,66.0,61.0,-100.00,SSE,165,1.0,-999.0,85,0.00,,,0.00,0.000000,,2013-08-21 09:54:00,
2013-08-21 05:00:00,66.0,62.0,-100.00,South,178,2.0,-999.0,88,0.00,,,0.00,0.000000,,2013-08-21 10:00:00,
2013-08-21 05:43:00,66.0,62.0,-100.00,South,178,2.0,-999.0,88,0.00,,,0.00,0.000000,,2013-08-21 10:43:00,
2013-08-21 05:52:00,66.0,62.0,-100.00,South,178,2.0,-999.0,88,0.00,,,0.00,0.000000,,2013-08-21 10:52:00,
2013-08-21 06:00:00,65.0,62.0,-100.00,South,175,1.0,-999.0,89,0.00,,,0.00,0.000000,,2013-08-21 11:00:00,
2013-08-21 06:42:00,65.0,62.0,-100.00,South,175,1.0,-999.0,89,0.00,,,0.00,0.000000,,2013-08-21 11:42:00,
2013-08-21 06:53:00,65.0,62.0,-100.00,South,175,1.0,-999.0,89,0.00,,,0.00,0.000000,,2013-08-21 11:53:00,
2013-08-21 07:00:00,64.0,61.0,-100.00,South,172,1.0,-999.0,90,0.00,,,0.00,0.000000,,2013-08-21 12:00:00,
2013-08-21 07:42:00,64.0,61.0,-100.00,South,172,1.0,-999.0,90,0.00,,,0.00,0.000000,,2013-08-21 12:42:00,
2013-08-21 07:52:00,64.0,61.0,-100.00,South,172,1.0,-999.0,90,0.00,,,0.00,0.000000,,2013-08-21 12:52:00,
2013-08-21 08:00:00,66.0,61.0,-100.00,SSW,196,1.0,-999.0,84,0.00,,,0.00,44.000000,,2013-08-21 13:00:00,
2013-08-21 08:42:00,66.0,61.0,-100.00,SSW,196,1.0,-999.0,84,0.00,,,0.00,44.000000,,2013-08-21 13:42:00,
2013-08-21 08:52:00,66.0,61.0,-100.00,SSW,196,1.0,-999.0,84,0.00,,,0.00,44.000000,,2013-08-21 13:52:00,
2013-08-21 10:00:00,77.0,63.0,-100.00,SSE,157,2.0,-999.0,61,0.00,,,0.00,415.000000,,2013-08-21 15:00:00,
2013-08-21 10:43:00,77.0,63.0,-100.00,SSE,157,2.0,-999.0,61,0.00,,,0.00,415.000000,,2013-08-21 15:43:00,
2013-08-21 10:55:00,77.0,63.0,-100.00,SSE,157,2.0,-999.0,61,0.00,,,0.00,415.000000,,2013-08-21 15:55:00,
2013-08-21 11:00:00,81.0,62.0,-100.00,SE,144,2.0,-999.0,54,0.00,,,0.00,617.000000,,2013-08-21 16:00:00,
2013-08-21 11:43:00,81.0,62.0,-100.00,SE,144,2.0,-999.0,54,0.00,,,0.00,617.000000,,2013-08-21 16:43:00,
2013-08-21 11:53:00,81.0,62.0,-100.00,SE,144,2.0,-999.0,54,0.00,,,0.00,617.000000,,2013-08-21 16:53:00,
2013-08-21 14:00:00,90.0,58.0,-100.00,SSW,198,3.0,-999.0,34,0.00,,,0.00,889.000000,,2013-08-21 19:00:00,
2013-08-21 14:52:00,90.0,58.0,-100.00,SSW,198,3.0,-999.0,34,0.00,,,0.00,889.000000,,2013-08-21 19:52:00,
2013-08-21 16:00:00,91.0,58.0,-100.00,South,186,4.0,-999.0,33,0.00,,,0.00,447.000000,,2013-08-21 21:00:00,
2013-08-21 16:44:00,91.0,58.0,-100.00,South,186,4.0,-999.0,33,0.00,,,0.00,447.000000,,2013-08-21 21:44:00,
2013-08-21 16:55:00,91.0,58.0,-100.00,South,186,4.0,-999.0,33,0.00,,,0.00,447.000000,,2013-08-21 21:55:00,
2013-08-21 18:00:00,90.0,58.0,-100.00,SSE,164,3.0,-999.0,35,0.00,,,0.00,341.000000,,2013-08-21 23:00:00,
2013-08-21 18:43:00,90.0,58.0,-100.00,SSE,164,3.0,-999.0,35,0.00,,,0.00,341.000000,,2013-08-21 23:43:00,
2013-08-21 18:53:00,90.0,58.0,-100.00,SSE,164,3.0,-999.0,35,0.00,,,0.00,341.000000,,2013-08-21 23:53:00,
2013-08-21 19:00:00,88.0,61.0,-100.00,SSE,160,3.0,-999.0,40,0.00,,,0.00,290.000000,,2013-08-22 00:00:00,
2013-08-21 19:22:00,88.0,61.0,-100.00,SSE,160,3.0,-999.0,40,0.00,,,0.00,290.000000,,2013-08-22 00:22:00,
2013-08-21 19:32:00,88.0,61.0,-100.00,SSE,160,3.0,-999.0,40,0.00,,,0.00,290.000000,,2013-08-22 00:32:00,
2013-08-21 19:42:00,88.0,61.0,-100.00,SSE,160,3.0,-999.0,40,0.00,,,0.00,290.000000,,2013-08-22 00:42:00,
2013-08-21 19:52:00,88.0,61.0,-100.00,SSE,160,3.0,-999.0,40,0.00,,,0.00,290.000000,,2013-08-22 00:52:00,
2013-08-21 20:42:00,86.0,65.0,-100.00,South,170,0.0,-999.0,50,0.00,,,0.00,97.000000,,2013-08-22 01:42:00,
2013-08-21 20:52:00,86.0,65.0,-100.00,South,170,0.0,-999.0,50,0.00,,,0.00,97.000000,,2013-08-22 01:52:00,
2013-08-21 21:00:00,78.0,69.0,-100.00,SE,142,1.0,-999.0,73,0.00,,,0.00,3.000000,,2013-08-22 02:00:00,
2013-08-21 21:52:00,78.0,69.0,-100.00,SE,142,1.0,-999.0,73,0.00,,,0.00,3.000000,,2013-08-22 02:52:00,
2013-08-21 22:00:00,75.0,67.0,-100.00,SSE,165,1.0,-999.0,75,0.00,,,0.00,0.000000,,2013-08-22 03:00:00,
2013-08-21 22:22:00,75.0,67.0,-100.00,SSE,165,1.0,-999.0,75,0.00,,,0.00,0.000000,,2013-08-22 03:22:00,
2013-08-21 22:34:00,75.0,67.0,-100.00,SSE,165,1.0,-999.0,75,0.00,,,0.00,0.000000,,2013-08-22 03:34:00,
2013-08-21 22:45:00,75.0,67.0,-100.00,SSE,165,1.0,-999.0,75,0.00,,,0.00,0.000000,,2013-08-22 03:45:00,
2013-08-21 22:54:00,75.0,67.0,-100.00,SSE,165,1.0,-999.0,75,0.00,,,0.00,0.000000,,2013-08-22 03:54:00,
2013-08-21 23:00:00,73.0,67.0,-100.00,SSE,150,1.0,-999.0,83,0.00,,,0.00,0.000000,,2013-08-22 04:00:00,
2013-08-21 23:44:00,73.0,67.0,-100.00,SSE,150,1.0,-999.0,83,0.00,,,0.00,0.000000,,2013-08-22 04:44:00,
2013-08-21 23:54:00,73.0,67.0,-100.00,SSE,150,1.0,-999.0,83,0.00,,,0.00,0.000000,,2013-08-22 04:54:00,